Carrollton, Arkansas
Current Conditions -  °F | °C
As of 5:53 AM on Friday 31 Oct 2014 (Local Time) from KHRO Reporting Station
Clear Clear  
Wind Chill: 44°   Ceiling: Unl
Heat Index: 48°   Visibility: 10mi
Dew Point: 40°   Wind: 9mph
Humidity: 74%   Direction: 330°NNW
Pressure: 30.17"   Gusts: NA
Location:  36.2987°N, 93.2709°W
Report Text: KHRO 311053Z AUTO 33008KT 10SM CLR 09/04 A3017 RMK AO2 SLP213 T00890044
Loading
Personal Weather Stations






























Interactive Weather Map
Tropical Storm Tracking
New forecast layout! Learn more

10-Day Weather Forecast

Advertisements
Track Severe Weather on mobile